createdAt,value
2024-04-18T00:02:23.434Z,94.85
2024-04-18T00:04:50.419Z,95.83
2024-04-18T00:07:19.828Z,95.95
2024-04-18T00:09:46.655Z,96.30
2024-04-18T00:12:16.091Z,96.51
2024-04-18T00:14:42.833Z,95.93
2024-04-18T00:17:14.841Z,95.79
2024-04-18T00:19:41.591Z,95.51
2024-04-18T00:22:10.910Z,96.25
2024-04-18T00:24:37.730Z,96.38
2024-04-18T00:27:07.452Z,96.20
2024-04-18T00:29:36.647Z,96.49
2024-04-18T00:32:06.356Z,97.02
2024-04-18T00:34:35.854Z,96.56
2024-04-18T00:37:05.252Z,96.94
2024-04-18T00:39:32.188Z,96.88
2024-04-18T00:42:01.602Z,95.80
2024-04-18T00:44:28.528Z,94.58
2024-04-18T00:46:58.926Z,94.25
2024-04-18T00:49:26.012Z,94.16
2024-04-18T00:51:58.674Z,94.45
2024-04-18T00:54:25.568Z,94.61
2024-04-18T00:56:54.978Z,93.65
2024-04-18T00:59:21.747Z,94.17
2024-04-18T01:01:51.433Z,94.12
2024-04-18T01:04:18.519Z,94.82
2024-04-18T01:06:49.035Z,94.71
2024-04-18T01:09:18.607Z,94.48
2024-04-18T01:11:47.995Z,95.00
2024-04-18T01:14:14.787Z,95.38
2024-04-18T01:16:44.097Z,95.57
2024-04-18T01:19:17.507Z,95.93
2024-04-18T01:21:46.891Z,95.89
2024-04-18T01:24:14.048Z,96.37
2024-04-18T01:26:46.016Z,96.41
2024-04-18T01:29:12.786Z,96.87
2024-04-18T01:31:42.134Z,95.96
2024-04-18T01:34:09.142Z,95.51
2024-04-18T01:36:38.578Z,96.30
2024-04-18T01:39:05.384Z,95.87
2024-04-18T01:41:34.740Z,96.46
2024-04-18T01:44:04.645Z,97.12
2024-04-18T01:46:33.986Z,96.85
2024-04-18T01:49:00.910Z,96.78
2024-04-18T01:51:30.312Z,96.39
2024-04-18T01:53:57.070Z,96.37
2024-04-18T01:56:26.588Z,96.92
2024-04-18T01:58:53.344Z,96.94
2024-04-18T02:01:30.845Z,96.64
2024-04-18T02:03:57.738Z,96.89
2024-04-18T02:06:27.188Z,96.71
2024-04-18T02:08:54.384Z,96.81
2024-04-18T02:11:23.726Z,97.00
2024-04-18T02:13:50.510Z,96.74
2024-04-18T02:16:19.834Z,96.95
2024-04-18T02:18:49.584Z,96.50
2024-04-18T02:21:19.101Z,96.96
2024-04-18T02:23:45.867Z,96.36
2024-04-18T02:26:15.466Z,96.65
2024-04-18T02:28:42.215Z,96.35
2024-04-18T02:31:11.586Z,96.48
2024-04-18T02:33:38.391Z,96.62
2024-04-18T02:36:10.707Z,96.31
2024-04-18T02:38:37.500Z,96.81
2024-04-18T02:41:07.819Z,95.77
2024-04-18T02:43:34.611Z,95.90
2024-04-18T02:46:04.038Z,95.78
2024-04-18T02:48:31.385Z,95.58
2024-04-18T02:51:00.842Z,95.96
2024-04-18T02:53:30.228Z,95.48
2024-04-18T02:55:59.584Z,95.74
2024-04-18T02:58:26.357Z,95.72
2024-04-18T03:00:55.805Z,95.78
2024-04-18T03:03:22.591Z,95.80
2024-04-18T03:05:51.947Z,95.54
2024-04-18T03:08:18.783Z,96.21
2024-04-18T03:10:56.482Z,96.12
2024-04-18T03:13:23.351Z,95.65
2024-04-18T03:15:52.701Z,95.63
2024-04-18T03:18:19.599Z,96.79
2024-04-18T03:20:55.232Z,95.80
2024-04-18T03:23:22.176Z,96.02
2024-04-18T03:25:52.217Z,95.55
2024-04-18T03:28:21.759Z,95.12
2024-04-18T03:30:51.254Z,95.57
2024-04-18T03:33:18.228Z,95.57
2024-04-18T03:35:47.616Z,95.92
2024-04-18T03:38:17.452Z,95.45
2024-04-18T03:40:57.395Z,95.56
2024-04-18T03:43:29.446Z,95.73
2024-04-18T03:46:00.666Z,95.20
2024-04-18T03:48:27.496Z,96.09
2024-04-18T03:50:56.910Z,96.29
2024-04-18T03:53:23.817Z,96.28
2024-04-18T03:55:53.156Z,95.68
2024-04-18T03:58:19.913Z,95.43
2024-04-18T04:00:52.775Z,95.92
2024-04-18T04:03:20.779Z,95.71
2024-04-18T04:05:51.118Z,95.81
2024-04-18T04:08:18.126Z,95.71
2024-04-18T04:10:47.482Z,96.04
2024-04-18T04:13:14.544Z,95.54
2024-04-18T04:15:43.972Z,95.65
2024-04-18T04:18:13.399Z,96.28
2024-04-18T04:20:42.808Z,96.25
2024-04-18T04:23:09.677Z,95.24
2024-04-18T04:25:39.151Z,95.05
2024-04-18T04:28:06.047Z,94.20
2024-04-18T04:30:35.416Z,94.62
2024-04-18T04:33:02.267Z,95.16
2024-04-18T04:35:34.286Z,94.64
2024-04-18T04:38:01.668Z,95.45
2024-04-18T04:40:31.030Z,95.15
2024-04-18T04:43:00.471Z,95.40
2024-04-18T04:45:30.149Z,95.80
2024-04-18T04:47:56.988Z,95.13
2024-04-18T04:50:26.454Z,95.32
2024-04-18T04:52:55.806Z,95.11
2024-04-18T04:55:25.183Z,95.18
2024-04-18T04:57:51.975Z,94.62
2024-04-18T05:00:21.432Z,94.27
2024-04-18T05:02:49.948Z,95.06
2024-04-18T05:05:19.452Z,95.17
2024-04-18T05:07:46.337Z,94.74
2024-04-18T05:10:18.467Z,94.63
2024-04-18T05:12:45.248Z,93.10
2024-04-18T05:15:14.695Z,93.03
2024-04-18T05:17:41.453Z,93.69
2024-04-18T05:20:11.497Z,95.51
2024-04-18T05:22:38.140Z,94.06
2024-04-18T05:25:10.578Z,93.60
2024-04-18T05:27:46.232Z,93.17
2024-04-18T05:30:32.093Z,92.31
2024-04-18T05:33:01.539Z,92.57
2024-04-18T05:35:30.895Z,93.75
2024-04-18T05:38:00.287Z,93.56
2024-04-18T05:40:29.872Z,93.74
2024-04-18T05:43:01.846Z,93.98
2024-04-18T05:45:31.241Z,93.51
2024-04-18T05:48:00.688Z,93.16
2024-04-18T05:50:30.230Z,92.67
2024-04-18T05:52:56.947Z,92.54
2024-04-18T05:55:26.383Z,93.72
2024-04-18T05:57:55.794Z,92.89
2024-04-18T06:00:27.812Z,93.41
2024-04-18T06:02:57.166Z,93.77
2024-04-18T06:05:26.524Z,93.45
2024-04-18T06:07:56.127Z,93.16
2024-04-18T06:10:25.522Z,92.07
2024-04-18T06:12:54.896Z,92.11
2024-04-18T06:15:26.916Z,91.19
2024-04-18T06:17:53.810Z,92.14
2024-04-18T06:20:23.417Z,92.32
2024-04-18T06:22:52.767Z,91.39
2024-04-18T06:25:22.184Z,91.75
2024-04-18T06:27:51.653Z,92.27
2024-04-18T06:30:21.304Z,92.43
2024-04-18T06:32:53.312Z,91.79
2024-04-18T06:35:22.691Z,91.87
2024-04-18T06:37:52.003Z,92.20
2024-04-18T06:40:24.613Z,92.27
2024-04-18T06:42:55.045Z,91.22
2024-04-18T06:45:26.333Z,90.52
2024-04-18T06:47:58.717Z,91.03
2024-04-18T06:50:30.156Z,88.98
2024-04-18T06:52:59.540Z,89.33
2024-04-18T06:55:28.927Z,89.77
2024-04-18T06:57:58.692Z,89.10
2024-04-18T07:00:28.400Z,90.26
2024-04-18T07:03:00.561Z,89.64
2024-04-18T07:05:27.519Z,89.82
2024-04-18T07:07:57.254Z,90.40
2024-04-18T07:10:26.707Z,89.36
2024-04-18T07:12:56.046Z,89.40
2024-04-18T07:15:25.596Z,88.65
2024-04-18T07:17:57.358Z,87.96
2024-04-18T07:20:29.459Z,85.19
2024-04-18T07:22:59.023Z,86.26
2024-04-18T07:25:25.795Z,85.89
2024-04-18T07:27:55.786Z,86.13
2024-04-18T07:30:25.245Z,85.80
2024-04-18T07:32:54.669Z,84.66
2024-04-18T07:35:24.591Z,84.93
2024-04-18T07:37:56.431Z,86.36
2024-04-18T07:40:25.791Z,86.53
2024-04-18T07:42:55.261Z,85.62
2024-04-18T07:45:24.867Z,86.07
2024-04-18T07:47:54.399Z,85.22
2024-04-18T07:50:23.861Z,85.83
2024-04-18T07:53:03.730Z,84.57
2024-04-18T07:55:38.769Z,84.65
2024-04-18T07:58:08.668Z,85.58
2024-04-18T08:00:39.658Z,85.95
2024-04-18T08:03:11.630Z,87.26
2024-04-18T08:05:43.826Z,88.20
2024-04-18T08:08:20.115Z,87.79
2024-04-18T08:11:08.430Z,87.91
2024-04-18T08:13:43.137Z,87.62
2024-04-18T08:16:15.666Z,88.64
2024-04-18T08:18:45.749Z,88.99
2024-04-18T08:21:15.219Z,89.18
2024-04-18T08:23:52.743Z,90.08
2024-04-18T08:26:22.314Z,88.88
2024-04-18T08:28:51.676Z,89.40
2024-04-18T08:31:21.057Z,90.19
2024-04-18T08:33:58.226Z,90.23
2024-04-18T08:36:32.320Z,88.35
2024-04-18T08:39:04.429Z,88.57
2024-04-18T08:41:38.310Z,88.05
2024-04-18T08:44:10.070Z,87.16
2024-04-18T08:46:40.222Z,88.16
2024-04-18T08:49:11.573Z,87.47
2024-04-18T08:51:41.921Z,86.95
2024-04-18T08:54:14.038Z,85.56
2024-04-18T08:56:49.679Z,84.33
2024-04-18T08:59:19.522Z,85.44
2024-04-18T09:01:49.757Z,84.39
2024-04-18T09:04:19.163Z,83.90
2024-04-18T09:06:48.524Z,84.04
2024-04-18T09:09:20.694Z,84.02
2024-04-18T09:11:50.066Z,84.23
2024-04-18T09:14:19.434Z,85.00
2024-04-18T09:16:48.766Z,83.24
2024-04-18T09:19:18.318Z,82.30
2024-04-18T09:21:48.121Z,83.91
2024-04-18T09:24:20.373Z,82.33
2024-04-18T09:26:49.937Z,82.96
2024-04-18T09:29:19.268Z,83.29
2024-04-18T09:31:49.283Z,83.03
2024-04-18T09:34:18.987Z,84.71
2024-04-18T09:36:49.341Z,84.02
2024-04-18T09:39:26.673Z,85.08
2024-04-18T09:42:03.894Z,86.33
2024-04-18T09:44:35.165Z,88.14
2024-04-18T09:47:04.616Z,88.19
2024-04-18T09:49:34.748Z,89.45
2024-04-18T09:52:04.692Z,90.11
2024-04-18T09:54:36.787Z,90.24
2024-04-18T09:57:07.653Z,90.16
2024-04-18T09:59:34.966Z,91.42
2024-04-18T10:02:06.114Z,91.30
2024-04-18T10:04:35.775Z,91.05
2024-04-18T10:07:05.540Z,91.36
2024-04-18T10:09:38.761Z,91.62
2024-04-18T10:12:09.921Z,91.54
2024-04-18T10:14:37.190Z,90.29
2024-04-18T10:17:08.682Z,90.63
2024-04-18T10:19:38.088Z,90.56
2024-04-18T10:22:23.305Z,90.38
2024-04-18T10:25:01.599Z,90.70
2024-04-18T10:27:30.985Z,90.86
2024-04-18T10:30:03.104Z,90.77
2024-04-18T10:32:33.895Z,87.90
2024-04-18T10:35:03.430Z,88.01
2024-04-18T10:37:32.826Z,86.61
2024-04-18T10:40:07.871Z,85.24
2024-04-18T10:42:40.770Z,84.75
2024-04-18T10:45:11.707Z,82.56
2024-04-18T10:47:42.453Z,81.26
2024-04-18T10:50:12.508Z,86.07
2024-04-18T10:52:41.840Z,82.85
2024-04-18T10:55:13.826Z,81.51
2024-04-18T10:57:40.663Z,80.41
2024-04-18T11:00:11.081Z,80.53
2024-04-18T11:02:40.515Z,79.31
2024-04-18T11:05:12.235Z,71.23
2024-04-18T11:07:42.378Z,70.60
2024-04-18T11:10:15.378Z,74.44
2024-04-18T11:12:44.912Z,68.24
2024-04-18T11:15:14.326Z,72.60
2024-04-18T11:17:43.800Z,69.44
2024-04-18T11:20:14.110Z,68.88
2024-04-18T11:22:42.982Z,71.92
2024-04-18T11:25:18.434Z,76.90
2024-04-18T11:27:47.830Z,79.66
2024-04-18T11:30:20.085Z,84.07
2024-04-18T11:32:55.891Z,86.65
2024-04-18T11:35:25.510Z,87.91
2024-04-18T11:37:52.462Z,87.95
2024-04-18T11:40:24.692Z,88.32
2024-04-18T11:42:54.179Z,88.68
2024-04-18T11:45:23.682Z,89.60
2024-04-18T11:47:59.325Z,90.50
2024-04-18T11:50:29.052Z,90.75
2024-04-18T11:52:58.599Z,91.61
2024-04-18T11:55:30.742Z,91.48
2024-04-18T11:58:00.065Z,91.15
2024-04-18T12:00:29.707Z,90.96
2024-04-18T12:02:59.324Z,91.56
2024-04-18T12:05:28.958Z,91.03
2024-04-18T12:07:58.322Z,91.23
2024-04-18T12:10:30.380Z,91.44
2024-04-18T12:12:59.731Z,91.47
2024-04-18T12:15:29.109Z,90.46
2024-04-18T12:17:59.281Z,91.30
2024-04-18T12:20:28.729Z,90.98
2024-04-18T12:22:58.171Z,91.17
2024-04-18T12:25:30.122Z,90.99
2024-04-18T12:27:59.476Z,89.71
2024-04-18T12:30:30.413Z,91.64
2024-04-18T12:33:00.247Z,91.69
2024-04-18T12:35:29.690Z,90.66
2024-04-18T12:37:59.054Z,91.83
2024-04-18T12:40:31.036Z,90.63
2024-04-18T12:43:00.391Z,91.38
2024-04-18T12:45:29.803Z,89.08
2024-04-18T12:48:01.582Z,88.89
2024-04-18T12:50:31.316Z,87.23
2024-04-18T12:53:00.710Z,86.01
2024-04-18T12:55:32.714Z,84.79
2024-04-18T12:58:02.609Z,87.45
2024-04-18T13:00:31.960Z,84.02
2024-04-18T13:03:01.527Z,85.12
2024-04-18T13:05:31.084Z,83.40
2024-04-18T13:08:00.484Z,79.92
2024-04-18T13:10:32.448Z,78.74
2024-04-18T13:13:01.826Z,75.60
2024-04-18T13:15:31.195Z,79.79
2024-04-18T13:18:00.570Z,77.44
2024-04-18T13:20:30.343Z,79.71
2024-04-18T13:22:59.530Z,77.58
2024-04-18T13:25:28.921Z,73.13
2024-04-18T13:28:00.908Z,75.86
2024-04-18T13:30:27.989Z,77.24
2024-04-18T13:32:57.428Z,75.33
2024-04-18T13:35:27.489Z,76.32
2024-04-18T13:37:58.393Z,75.69
2024-04-18T13:40:27.748Z,74.94
2024-04-18T13:42:57.362Z,76.84
2024-04-18T13:45:29.475Z,77.94
2024-04-18T13:47:59.037Z,80.25
2024-04-18T13:50:31.200Z,79.70
2024-04-18T13:53:00.602Z,78.87
2024-04-18T13:55:29.985Z,80.44
2024-04-18T13:58:00.039Z,79.95
2024-04-18T14:00:32.802Z,79.56
2024-04-18T14:03:02.463Z,77.87
2024-04-18T14:05:31.965Z,76.76
2024-04-18T14:08:01.292Z,72.95
2024-04-18T14:10:30.649Z,78.84
2024-04-18T14:12:59.995Z,69.05
2024-04-18T14:15:37.532Z,65.78
2024-04-18T14:18:24.061Z,67.06
2024-04-18T14:20:55.200Z,73.31
2024-04-18T14:23:24.647Z,74.94
2024-04-18T14:25:55.978Z,75.82
2024-04-18T14:28:31.706Z,76.07
2024-04-18T14:31:05.535Z,76.28
2024-04-18T14:33:35.042Z,79.47
2024-04-18T14:36:04.487Z,80.09
2024-04-18T14:38:33.863Z,80.26
2024-04-18T14:41:09.869Z,78.97
2024-04-18T14:43:41.781Z,82.52
2024-04-18T14:46:13.834Z,86.52
2024-04-18T14:48:43.278Z,87.95
2024-04-18T14:51:12.801Z,89.16
2024-04-18T14:53:42.213Z,89.09
2024-04-18T14:56:11.550Z,91.45
2024-04-18T14:58:42.090Z,92.43
2024-04-18T15:01:14.180Z,89.89
2024-04-18T15:03:43.676Z,89.96
2024-04-18T15:06:13.628Z,90.42
2024-04-18T15:08:43.628Z,89.56
2024-04-18T15:11:13.304Z,91.26
2024-04-18T15:13:43.071Z,91.75
2024-04-18T15:16:15.729Z,88.82
2024-04-18T15:18:45.208Z,87.30
2024-04-18T15:21:14.658Z,89.14
2024-04-18T15:23:44.010Z,88.85
2024-04-18T15:26:15.121Z,89.03
2024-04-18T15:28:44.477Z,89.77
2024-04-18T15:31:16.864Z,88.93
2024-04-18T15:33:46.261Z,86.94
2024-04-18T15:36:15.696Z,83.84
2024-04-18T15:38:45.036Z,84.68
2024-04-18T15:41:14.428Z,84.60
2024-04-18T15:43:43.987Z,84.08
2024-04-18T15:46:16.124Z,84.45
2024-04-18T15:48:45.511Z,86.16
2024-04-18T15:51:14.935Z,84.47
2024-04-18T15:53:44.369Z,85.49
2024-04-18T15:56:15.875Z,86.11
2024-04-18T15:58:43.934Z,85.83
2024-04-18T16:01:15.836Z,82.55
2024-04-18T16:03:45.287Z,82.51
2024-04-18T16:06:14.692Z,82.13
2024-04-18T16:08:44.071Z,83.69
2024-04-18T16:11:10.823Z,80.25
2024-04-18T16:13:40.168Z,78.75
2024-04-18T16:16:09.809Z,81.87
2024-04-18T16:18:42.000Z,80.78
2024-04-18T16:21:11.863Z,81.04
2024-04-18T16:23:41.599Z,78.97
2024-04-18T16:26:10.940Z,79.88
2024-04-18T16:28:42.555Z,80.41
2024-04-18T16:31:09.385Z,78.44
2024-04-18T16:33:41.388Z,80.40
2024-04-18T16:36:17.892Z,82.17
2024-04-18T16:38:53.748Z,80.48
2024-04-18T16:41:23.494Z,80.93
2024-04-18T16:43:52.801Z,79.61
2024-04-18T16:46:22.172Z,80.04
2024-04-18T16:48:54.516Z,79.92
2024-04-18T16:51:24.031Z,79.95
2024-04-18T16:53:55.343Z,80.67
2024-04-18T16:56:25.584Z,80.97
2024-04-18T16:58:55.088Z,81.89
2024-04-18T17:01:24.603Z,83.20
2024-04-18T17:03:56.845Z,81.57
2024-04-18T17:06:35.151Z,83.61
2024-04-18T17:09:10.385Z,83.26
2024-04-18T17:11:39.735Z,84.75
2024-04-18T17:14:09.107Z,83.82
2024-04-18T17:16:38.579Z,82.05
2024-04-18T17:19:10.641Z,80.90
2024-04-18T17:21:42.701Z,80.65
2024-04-18T17:24:12.123Z,82.75
2024-04-18T17:26:41.491Z,81.37
2024-04-18T17:29:10.887Z,81.33
2024-04-18T17:31:40.890Z,81.61
2024-04-18T17:34:14.250Z,81.21
2024-04-18T17:36:43.640Z,81.84
2024-04-18T17:39:13.229Z,82.68
2024-04-18T17:41:42.610Z,85.04
2024-04-18T17:44:12.010Z,85.75
2024-04-18T17:46:42.152Z,85.73
2024-04-18T17:49:14.310Z,86.65
2024-04-18T17:51:43.715Z,84.47
2024-04-18T17:54:13.267Z,83.57
2024-04-18T17:56:42.609Z,85.09
2024-04-18T17:59:13.078Z,84.61
2024-04-18T18:01:44.047Z,84.80
2024-04-18T18:04:17.532Z,85.62
2024-04-18T18:06:47.145Z,85.72
2024-04-18T18:09:16.654Z,84.72
2024-04-18T18:11:46.174Z,85.66
2024-04-18T18:14:15.662Z,86.22
2024-04-18T18:16:44.996Z,85.63
2024-04-18T18:19:17.224Z,86.32
2024-04-18T18:21:46.723Z,86.53
2024-04-18T18:24:16.235Z,87.71
2024-04-18T18:26:45.799Z,87.53
2024-04-18T18:29:12.612Z,88.53
2024-04-18T18:31:42.495Z,89.08
2024-04-18T18:34:11.211Z,88.49
2024-04-18T18:36:43.295Z,90.54
2024-04-18T18:39:10.201Z,89.86
2024-04-18T18:41:40.020Z,90.91
2024-04-18T18:44:07.742Z,90.26
2024-04-18T18:46:37.112Z,90.65
2024-04-18T18:49:04.012Z,91.75
2024-04-18T18:51:34.801Z,91.42
2024-04-18T18:54:04.565Z,91.70
2024-04-18T18:56:33.906Z,91.80
2024-04-18T18:59:00.677Z,91.81
2024-04-18T19:01:30.013Z,92.45
2024-04-18T19:03:56.911Z,93.13
2024-04-18T19:06:27.203Z,92.79
2024-04-18T19:08:56.885Z,93.60
2024-04-18T19:11:29.091Z,92.92
2024-04-18T19:13:56.169Z,92.77
2024-04-18T19:16:25.521Z,92.79
2024-04-18T19:18:52.408Z,93.46
2024-04-18T19:21:22.056Z,93.28
2024-04-18T19:23:48.945Z,93.83
2024-04-18T19:26:19.869Z,93.97
2024-04-18T19:28:49.322Z,94.38
2024-04-18T19:31:20.750Z,93.94
2024-04-18T19:33:47.665Z,93.83
2024-04-18T19:36:17.281Z,94.38
2024-04-18T19:38:45.808Z,93.73
2024-04-18T19:41:15.216Z,93.89
2024-04-18T19:43:41.989Z,93.51
2024-04-18T19:46:13.958Z,93.57
2024-04-18T19:48:40.826Z,92.97
2024-04-18T19:51:10.449Z,93.50
2024-04-18T19:53:37.591Z,93.44
2024-04-18T19:56:07.519Z,93.25
2024-04-18T19:58:34.297Z,92.97
2024-04-18T20:01:06.421Z,93.40
2024-04-18T20:03:36.553Z,93.65
2024-04-18T20:06:06.289Z,93.14
2024-04-18T20:08:33.098Z,93.59
2024-04-18T20:11:02.630Z,93.67
2024-04-18T20:13:29.466Z,93.94
2024-04-18T20:15:58.946Z,93.63
2024-04-18T20:18:25.820Z,93.72
2024-04-18T20:20:57.884Z,93.00
2024-04-18T20:23:24.778Z,93.17
2024-04-18T20:25:54.322Z,93.43
2024-04-18T20:28:21.140Z,93.31
2024-04-18T20:30:50.625Z,93.49
2024-04-18T20:33:17.490Z,93.75
2024-04-18T20:35:46.999Z,93.41
2024-04-18T20:38:16.381Z,94.19
2024-04-18T20:40:45.819Z,92.89
2024-04-18T20:43:12.576Z,93.84
2024-04-18T20:45:41.951Z,94.16
2024-04-18T20:48:09.088Z,93.54
2024-04-18T20:50:38.681Z,93.06
2024-04-18T20:53:05.694Z,93.17
2024-04-18T20:55:37.682Z,93.55
2024-04-18T20:58:05.066Z,92.99
2024-04-18T21:00:34.549Z,93.53
2024-04-18T21:03:01.497Z,93.16
2024-04-18T21:05:30.973Z,94.15
2024-04-18T21:07:57.832Z,93.70
2024-04-18T21:10:27.395Z,93.80
2024-04-18T21:12:56.930Z,93.71
2024-04-18T21:15:26.528Z,94.11
2024-04-18T21:17:55.122Z,94.44
2024-04-18T21:20:24.680Z,94.82
2024-04-18T21:22:54.712Z,94.67
2024-04-18T21:25:24.406Z,94.49
2024-04-18T21:27:51.417Z,94.87
2024-04-18T21:30:23.654Z,94.64
2024-04-18T21:32:53.524Z,94.70
2024-04-18T21:35:23.615Z,94.51
2024-04-18T21:37:50.503Z,95.11
2024-04-18T21:40:20.048Z,95.32
2024-04-18T21:42:46.977Z,94.57
2024-04-18T21:45:16.484Z,94.33
2024-04-18T21:47:46.139Z,94.64
2024-04-18T21:50:15.733Z,94.74
2024-04-18T21:52:42.615Z,95.09
2024-04-18T21:55:15.391Z,95.08
2024-04-18T21:57:42.721Z,94.93
2024-04-18T22:00:13.087Z,94.88
2024-04-18T22:02:40.019Z,94.39
2024-04-18T22:05:12.494Z,94.33
2024-04-18T22:07:39.340Z,94.49
2024-04-18T22:10:10.259Z,94.22
2024-04-18T22:12:37.185Z,94.42
2024-04-18T22:15:07.313Z,94.10
2024-04-18T22:17:36.812Z,94.28
2024-04-18T22:20:03.933Z,94.52
2024-04-18T22:22:36.028Z,94.13
2024-04-18T22:25:02.877Z,94.02
2024-04-18T22:27:32.327Z,93.94
2024-04-18T22:29:59.214Z,93.85
2024-04-18T22:32:28.749Z,93.94
2024-04-18T22:34:56.524Z,93.55
2024-04-18T22:37:26.027Z,93.98
2024-04-18T22:39:55.510Z,94.42
2024-04-18T22:42:25.003Z,94.42
2024-04-18T22:44:51.881Z,94.30
2024-04-18T22:47:21.348Z,94.52
2024-04-18T22:49:48.241Z,94.35
2024-04-18T22:52:17.699Z,94.03
2024-04-18T22:54:44.722Z,93.93
2024-04-18T22:57:17.046Z,94.13
2024-04-18T22:59:46.455Z,94.69
2024-04-18T23:02:16.483Z,93.23
2024-04-18T23:04:43.489Z,93.49
2024-04-18T23:07:13.375Z,93.73
2024-04-18T23:09:40.337Z,93.70
2024-04-18T23:12:10.187Z,93.43
2024-04-18T23:14:39.551Z,93.68
2024-04-18T23:17:09.048Z,93.86
2024-04-18T23:19:35.925Z,93.78
2024-04-18T23:22:06.650Z,94.12
2024-04-18T23:24:33.637Z,94.75
2024-04-18T23:27:03.111Z,94.46
2024-04-18T23:29:30.766Z,94.41
2024-04-18T23:32:02.935Z,94.63
2024-04-18T23:34:29.819Z,94.45
2024-04-18T23:36:59.313Z,94.39
2024-04-18T23:39:26.178Z,94.33
2024-04-18T23:41:55.628Z,94.07
2024-04-18T23:44:22.527Z,94.41
2024-04-18T23:46:52.028Z,94.50
2024-04-18T23:49:21.527Z,94.76
2024-04-18T23:51:50.991Z,95.56
2024-04-18T23:54:18.912Z,95.10
2024-04-18T23:56:48.373Z,95.30
2024-04-18T23:59:15.276Z,94.42
